Time;durP1;ratioP1;P1;durP2;ratioP2;P2;SDS_P1;SDS_P2;PMS_P1;PMS_P2;Temp;Humidity;BMP_temperature;BMP_pressure;BME280_temperature;BME280_humidity;BME280_pressure;Samples;Min_cycle;Max_cycle;Signal;HPM_P1;HPM_P2
2023/05/06 00:01:47;;;;;;;6.20;5.27;;;;;;;;;;5041957;28;20239;-52
2023/05/06 00:04:14;;;;;;;7.93;5.40;;;;;;;;;;5042810;28;20231;-50
2023/05/06 00:06:41;;;;;;;8.10;5.27;;;;;;;;;;5042335;28;20252;-52
2023/05/06 00:09:08;;;;;;;7.27;5.13;;;;;;;;;;5040427;28;20235;-52
2023/05/06 00:11:34;;;;;;;6.55;4.60;;;;;;;;;;5041129;28;20232;-51
2023/05/06 00:14:01;;;;;;;11.10;5.50;;;;;;;;;;5041439;28;20231;-51
2023/05/06 00:16:29;;;;;;;8.63;5.37;;;;;;;;;;5042516;28;20714;-51
2023/05/06 00:18:55;;;;;;;6.50;4.68;;;;;;;;;;5039840;28;20240;-51
2023/05/06 00:21:22;;;;;;;6.40;5.37;;;;;;;;;;5040357;28;20235;-51
2023/05/06 00:23:48;;;;;;;7.77;5.00;;;;;;;;;;5041057;28;20261;-50
2023/05/06 00:26:15;;;;;;;9.33;5.40;;;;;;;;;;5036065;28;20278;-52
2023/05/06 00:28:42;;;;;;;5.80;5.00;;;;;;;;;;5038494;28;20239;-51
2023/05/06 00:31:08;;;;;;;9.67;5.27;;;;;;;;;;5043379;28;20254;-51
2023/05/06 00:33:36;;;;;;;10.37;6.20;;;;;;;;;;5041169;28;20307;-51
2023/05/06 00:36:03;;;;;;;7.17;5.57;;;;;;;;;;5041490;28;20310;-51
2023/05/06 00:38:30;;;;;;;8.20;5.50;;;;;;;;;;5043936;28;20247;-51
2023/05/06 00:40:57;;;;;;;5.97;4.80;;;;;;;;;;5042908;28;20245;-51
2023/05/06 00:43:23;;;;;;;6.47;5.63;;;;;;;;;;5043300;28;20238;-52
2023/05/06 00:45:51;;;;;;;6.27;5.33;;;;;;;;;;5043276;28;20289;-51
2023/05/06 00:48:17;;;;;;;8.83;5.23;;;;;;;;;;5042625;28;20236;-51
2023/05/06 00:50:46;;;;;;;10.37;6.47;;;;;;;;;;5036759;28;20236;-59
2023/05/06 00:53:12;;;;;;;10.83;5.27;;;;;;;;;;5043524;28;20270;-52
2023/05/06 00:55:39;;;;;;;9.00;5.50;;;;;;;;;;5044879;28;20827;-52
2023/05/06 00:58:06;;;;;;;10.60;5.80;;;;;;;;;;5044420;28;20240;-52
2023/05/06 01:00:33;;;;;;;6.77;5.67;;;;;;;;;;5042015;28;20227;-51
2023/05/06 01:03:00;;;;;;;11.80;5.87;;;;;;;;;;5035439;28;20618;-51
2023/05/06 01:05:31;;;;;;;8.23;5.60;;;;;;;;;;5051342;28;20289;-51
2023/05/06 01:08:04;;;;;;;7.27;5.13;;;;;;;;;;5046423;28;20808;-50
2023/05/06 01:10:34;;;;;;;6.80;5.80;;;;;;;;;;5045019;28;20282;-52
2023/05/06 01:13:04;;;;;;;12.67;6.67;;;;;;;;;;5043407;28;20262;-53
2023/05/06 01:15:33;;;;;;;8.97;5.53;;;;;;;;;;5031042;28;20232;-53
2023/05/06 01:18:01;;;;;;;6.77;5.57;;;;;;;;;;5034260;28;20281;-52
2023/05/06 01:20:30;;;;;;;5.37;4.87;;;;;;;;;;5042202;28;20274;-52
2023/05/06 01:22:59;;;;;;;9.67;6.20;;;;;;;;;;5041208;28;20236;-51
2023/05/06 01:25:29;;;;;;;8.93;5.93;;;;;;;;;;5038352;28;20224;-51
2023/05/06 01:27:55;;;;;;;7.47;6.00;;;;;;;;;;5039264;28;20240;-51
2023/05/06 01:30:23;;;;;;;5.97;5.23;;;;;;;;;;5038915;28;20232;-51
2023/05/06 01:32:53;;;;;;;6.60;5.93;;;;;;;;;;5042363;28;20247;-52
2023/05/06 01:35:24;;;;;;;5.97;5.40;;;;;;;;;;5045605;28;20297;-51
2023/05/06 01:37:55;;;;;;;6.33;5.67;;;;;;;;;;5046994;28;20232;-51
2023/05/06 01:40:23;;;;;;;7.93;6.43;;;;;;;;;;5044705;28;20310;-52
2023/05/06 01:42:52;;;;;;;8.57;5.97;;;;;;;;;;5044806;28;20745;-51
2023/05/06 01:45:19;;;;;;;8.00;5.83;;;;;;;;;;5045632;28;20236;-52
2023/05/06 01:47:46;;;;;;;7.33;5.63;;;;;;;;;;5038774;28;20228;-51
2023/05/06 01:50:13;;;;;;;7.73;5.37;;;;;;;;;;5043044;28;20285;-51
2023/05/06 01:52:40;;;;;;;7.50;5.57;;;;;;;;;;5045083;28;20236;-52
2023/05/06 01:55:07;;;;;;;7.17;5.53;;;;;;;;;;5050563;28;20232;-53
2023/05/06 01:57:34;;;;;;;6.63;5.80;;;;;;;;;;5046196;28;20235;-51
2023/05/06 02:00:02;;;;;;;8.20;6.70;;;;;;;;;;5045259;28;20240;-50
2023/05/06 02:02:29;;;;;;;7.33;5.60;;;;;;;;;;5044641;28;20240;-51
2023/05/06 02:04:55;;;;;;;7.00;5.73;;;;;;;;;;5045666;28;20231;-52
2023/05/06 02:07:22;;;;;;;6.60;5.97;;;;;;;;;;5046934;28;20392;-51
2023/05/06 02:09:49;;;;;;;8.00;6.10;;;;;;;;;;5037504;28;20335;-51
2023/05/06 02:12:15;;;;;;;7.43;6.10;;;;;;;;;;5042199;28;20235;-51
2023/05/06 02:14:42;;;;;;;8.10;5.93;;;;;;;;;;5044673;28;20240;-51
2023/05/06 02:17:10;;;;;;;8.27;6.47;;;;;;;;;;5045609;28;20290;-50
2023/05/06 02:19:36;;;;;;;7.70;5.47;;;;;;;;;;5044520;28;20311;-51
2023/05/06 02:22:03;;;;;;;6.10;5.37;;;;;;;;;;5039933;28;20807;-51
2023/05/06 02:24:30;;;;;;;8.17;4.97;;;;;;;;;;5023210;28;20302;-51
2023/05/06 02:26:56;;;;;;;6.07;5.30;;;;;;;;;;5038529;28;20243;-51
2023/05/06 02:29:23;;;;;;;10.53;6.20;;;;;;;;;;5044510;28;20228;-51
2023/05/06 02:31:50;;;;;;;6.97;6.27;;;;;;;;;;5044222;28;20334;-50
2023/05/06 02:34:18;;;;;;;8.23;5.60;;;;;;;;;;5044662;28;20596;-52
2023/05/06 02:36:44;;;;;;;6.20;5.60;;;;;;;;;;5043637;28;20236;-51
2023/05/06 02:39:11;;;;;;;10.63;6.87;;;;;;;;;;5041625;28;20274;-52
2023/05/06 02:41:37;;;;;;;6.93;5.73;;;;;;;;;;5043069;28;20236;-52
2023/05/06 02:44:05;;;;;;;7.87;5.70;;;;;;;;;;5028190;28;20298;-51
2023/05/06 02:46:31;;;;;;;12.07;7.17;;;;;;;;;;5044235;28;20224;-51
2023/05/06 02:48:58;;;;;;;11.30;6.07;;;;;;;;;;5044363;28;20262;-52
2023/05/06 02:51:26;;;;;;;9.37;6.87;;;;;;;;;;5039921;28;20235;-52
2023/05/06 02:53:52;;;;;;;6.90;5.57;;;;;;;;;;5044877;28;20235;-51
2023/05/06 02:56:19;;;;;;;10.17;6.33;;;;;;;;;;5037301;28;20236;-51
2023/05/06 02:58:46;;;;;;;6.33;5.60;;;;;;;;;;5043850;28;20240;-51
2023/05/06 03:01:12;;;;;;;6.73;5.60;;;;;;;;;;5042866;28;20780;-51
2023/05/06 03:03:39;;;;;;;7.53;6.53;;;;;;;;;;5046033;28;20243;-51
2023/05/06 03:06:05;;;;;;;7.57;6.10;;;;;;;;;;5046175;28;20224;-51
2023/05/06 03:08:33;;;;;;;7.70;5.70;;;;;;;;;;5041428;28;20887;-51
2023/05/06 03:11:00;;;;;;;8.27;6.10;;;;;;;;;;5037627;28;20239;-53
2023/05/06 03:13:27;;;;;;;9.70;6.43;;;;;;;;;;5030736;28;20306;-51
2023/05/06 03:15:53;;;;;;;5.73;5.13;;;;;;;;;;5028102;28;20232;-52
2023/05/06 03:18:20;;;;;;;6.83;5.83;;;;;;;;;;5024639;28;20327;-52
2023/05/06 03:20:47;;;;;;;6.10;5.17;;;;;;;;;;5022349;28;20236;-52
2023/05/06 03:23:14;;;;;;;6.43;5.83;;;;;;;;;;5026009;28;20248;-51
2023/05/06 03:25:42;;;;;;;5.47;4.97;;;;;;;;;;5023449;28;20240;-52
2023/05/06 03:28:09;;;;;;;6.83;5.93;;;;;;;;;;5044877;28;20262;-51
2023/05/06 03:30:35;;;;;;;7.60;5.83;;;;;;;;;;5043063;28;20232;-51
2023/05/06 03:33:02;;;;;;;9.10;6.10;;;;;;;;;;5041733;28;20247;-51
2023/05/06 03:35:29;;;;;;;9.10;5.70;;;;;;;;;;5043016;28;20235;-51
2023/05/06 03:37:56;;;;;;;11.17;6.33;;;;;;;;;;5043012;28;20236;-51
2023/05/06 03:40:23;;;;;;;6.80;5.57;;;;;;;;;;5040408;28;20228;-50
2023/05/06 03:42:51;;;;;;;8.03;5.53;;;;;;;;;;5040109;28;21889;-52
2023/05/06 03:45:17;;;;;;;8.33;6.03;;;;;;;;;;5038619;28;20760;-51
2023/05/06 03:47:44;;;;;;;10.13;6.47;;;;;;;;;;5042830;28;20232;-51
2023/05/06 03:50:11;;;;;;;7.23;5.73;;;;;;;;;;5042283;28;20247;-50
2023/05/06 03:52:38;;;;;;;13.47;6.77;;;;;;;;;;5040974;28;20330;-52
2023/05/06 03:55:05;;;;;;;7.60;5.93;;;;;;;;;;5043133;28;20232;-51
2023/05/06 03:57:31;;;;;;;7.80;5.50;;;;;;;;;;5043397;28;20240;-51
2023/05/06 03:59:59;;;;;;;10.20;6.43;;;;;;;;;;5041416;28;20239;-51
2023/05/06 04:02:28;;;;;;;6.70;5.63;;;;;;;;;;5042647;28;20235;-51
2023/05/06 04:04:54;;;;;;;6.40;5.73;;;;;;;;;;5042534;28;20234;-51
2023/05/06 04:07:21;;;;;;;6.07;5.27;;;;;;;;;;5041546;28;20737;-51
2023/05/06 04:09:48;;;;;;;8.80;6.43;;;;;;;;;;5042906;28;20240;-51
2023/05/06 04:12:14;;;;;;;7.97;6.33;;;;;;;;;;5042898;28;20232;-51
2023/05/06 04:14:41;;;;;;;7.10;5.87;;;;;;;;;;5043565;28;20240;-51
2023/05/06 04:17:09;;;;;;;9.17;6.57;;;;;;;;;;5034112;28;20308;-51
2023/05/06 04:19:35;;;;;;;7.03;6.13;;;;;;;;;;5043097;28;20234;-51
2023/05/06 04:22:02;;;;;;;8.90;5.97;;;;;;;;;;5042508;28;20335;-52
2023/05/06 04:24:30;;;;;;;7.40;5.57;;;;;;;;;;5040483;28;20841;-52
2023/05/06 04:26:56;;;;;;;6.00;5.40;;;;;;;;;;5043207;28;20246;-51
2023/05/06 04:29:22;;;;;;;7.13;5.60;;;;;;;;;;5041640;28;20714;-51
2023/05/06 04:31:50;;;;;;;8.00;6.57;;;;;;;;;;5041640;28;20741;-51
2023/05/06 04:34:18;;;;;;;8.03;6.07;;;;;;;;;;5042667;28;20961;-50
2023/05/06 04:36:44;;;;;;;7.73;6.60;;;;;;;;;;5042303;28;20258;-51
2023/05/06 04:39:11;;;;;;;6.67;5.70;;;;;;;;;;5042627;28;20232;-50
2023/05/06 04:41:38;;;;;;;7.07;4.77;;;;;;;;;;5029990;28;20236;-51
2023/05/06 04:44:04;;;;;;;9.40;6.43;;;;;;;;;;5041719;28;20232;-50
2023/05/06 04:46:32;;;;;;;7.77;5.70;;;;;;;;;;5035062;28;20334;-50
2023/05/06 04:48:59;;;;;;;6.90;6.13;;;;;;;;;;5040657;28;20258;-50
2023/05/06 04:51:27;;;;;;;7.83;6.93;;;;;;;;;;5039923;28;20242;-52
2023/05/06 04:53:54;;;;;;;8.33;5.67;;;;;;;;;;5042251;28;20240;-51
2023/05/06 04:56:21;;;;;;;7.17;5.70;;;;;;;;;;5043519;28;20663;-52
2023/05/06 04:58:48;;;;;;;9.30;6.40;;;;;;;;;;5042222;28;20254;-52
2023/05/06 05:01:15;;;;;;;6.87;5.20;;;;;;;;;;5040758;28;20270;-50
2023/05/06 05:03:41;;;;;;;7.20;5.73;;;;;;;;;;5041541;28;20240;-51
2023/05/06 05:06:08;;;;;;;8.23;6.30;;;;;;;;;;5026689;28;20227;-51
2023/05/06 05:08:36;;;;;;;8.17;5.70;;;;;;;;;;5032181;28;20788;-51
2023/05/06 05:11:03;;;;;;;6.53;5.63;;;;;;;;;;5033552;28;20248;-51
2023/05/06 05:13:30;;;;;;;7.23;5.30;;;;;;;;;;5043028;28;20235;-51
2023/05/06 05:15:56;;;;;;;9.97;5.93;;;;;;;;;;5045770;28;20235;-51
2023/05/06 05:18:23;;;;;;;7.83;5.53;;;;;;;;;;5044493;28;20239;-50
2023/05/06 05:20:50;;;;;;;6.47;5.80;;;;;;;;;;5041620;28;20322;-52
2023/05/06 05:23:17;;;;;;;6.60;5.63;;;;;;;;;;5043665;28;20581;-51
2023/05/06 05:25:45;;;;;;;6.97;6.37;;;;;;;;;;5044935;28;20236;-51
2023/05/06 05:28:11;;;;;;;7.43;5.93;;;;;;;;;;5045495;28;20236;-50
2023/05/06 05:30:38;;;;;;;6.00;5.43;;;;;;;;;;5046447;28;20236;-52
2023/05/06 05:33:04;;;;;;;8.43;6.37;;;;;;;;;;5045136;28;20372;-51
2023/05/06 05:35:31;;;;;;;7.00;6.30;;;;;;;;;;5045401;28;20231;-50
2023/05/06 05:37:58;;;;;;;8.63;5.63;;;;;;;;;;5044494;28;20943;-50
2023/05/06 05:40:25;;;;;;;7.03;5.57;;;;;;;;;;5044197;28;20224;-51
2023/05/06 05:42:52;;;;;;;6.83;6.17;;;;;;;;;;5044523;28;20244;-50
2023/05/06 05:45:20;;;;;;;8.67;6.23;;;;;;;;;;5045032;28;20232;-51
2023/05/06 05:47:46;;;;;;;11.30;6.43;;;;;;;;;;5045695;28;20239;-52
2023/05/06 05:50:13;;;;;;;6.73;6.03;;;;;;;;;;5045842;28;20607;-50
2023/05/06 05:52:39;;;;;;;7.33;5.57;;;;;;;;;;5045062;28;20673;-51
2023/05/06 05:55:06;;;;;;;6.90;5.43;;;;;;;;;;5041879;28;20330;-50
2023/05/06 05:57:33;;;;;;;10.07;5.83;;;;;;;;;;5034177;28;20294;-51
2023/05/06 06:00:01;;;;;;;9.60;6.40;;;;;;;;;;5043440;28;20251;-51
2023/05/06 06:02:27;;;;;;;9.70;6.77;;;;;;;;;;5037666;28;20286;-51
2023/05/06 06:04:54;;;;;;;8.17;6.50;;;;;;;;;;5045559;28;20247;-52
2023/05/06 06:07:21;;;;;;;8.47;6.93;;;;;;;;;;5044585;28;20234;-52
2023/05/06 06:09:47;;;;;;;8.07;5.67;;;;;;;;;;5044074;28;20247;-52
2023/05/06 06:12:14;;;;;;;8.63;6.50;;;;;;;;;;5044141;28;20290;-51
2023/05/06 06:14:43;;;;;;;10.90;6.83;;;;;;;;;;5022811;28;20241;-50
2023/05/06 06:17:11;;;;;;;6.33;5.73;;;;;;;;;;5034239;28;20232;-50
2023/05/06 06:19:38;;;;;;;9.13;6.20;;;;;;;;;;5042743;28;20232;-51
2023/05/06 06:22:05;;;;;;;10.97;6.27;;;;;;;;;;5043594;28;20742;-51
2023/05/06 06:24:33;;;;;;;9.77;6.07;;;;;;;;;;5042646;28;20228;-50
2023/05/06 06:27:00;;;;;;;6.67;5.73;;;;;;;;;;5042347;28;20661;-51
2023/05/06 06:29:27;;;;;;;7.90;6.50;;;;;;;;;;5043072;28;20228;-52
2023/05/06 06:31:54;;;;;;;7.77;5.20;;;;;;;;;;5040690;28;20240;-50
2023/05/06 06:34:22;;;;;;;9.67;7.17;;;;;;;;;;5044403;28;20220;-50
2023/05/06 06:36:49;;;;;;;6.80;5.57;;;;;;;;;;5043163;28;22090;-51
2023/05/06 06:39:15;;;;;;;8.60;6.20;;;;;;;;;;5045809;28;20223;-54
2023/05/06 06:41:42;;;;;;;8.33;6.43;;;;;;;;;;5044527;28;20339;-50
2023/05/06 06:44:09;;;;;;;7.00;5.93;;;;;;;;;;5044269;28;20232;-50
2023/05/06 06:46:35;;;;;;;7.67;6.43;;;;;;;;;;5041424;28;20318;-51
2023/05/06 06:49:02;;;;;;;5.80;4.73;;;;;;;;;;5040061;28;20240;-51
2023/05/06 06:51:31;;;;;;;8.60;6.97;;;;;;;;;;5042698;28;20653;-51
2023/05/06 06:53:57;;;;;;;8.47;7.57;;;;;;;;;;5044142;28;20765;-51
2023/05/06 06:56:24;;;;;;;9.73;6.70;;;;;;;;;;5044696;28;20899;-51
2023/05/06 06:58:51;;;;;;;8.73;6.60;;;;;;;;;;5042449;28;20323;-50
2023/05/06 07:01:18;;;;;;;7.70;7.00;;;;;;;;;;5030307;28;20322;-51
2023/05/06 07:03:45;;;;;;;6.97;6.20;;;;;;;;;;5053192;28;20246;-51
2023/05/06 07:06:11;;;;;;;10.13;7.83;;;;;;;;;;5034004;28;20228;-50
2023/05/06 07:08:39;;;;;;;8.67;7.10;;;;;;;;;;5042839;28;20232;-50
2023/05/06 07:11:06;;;;;;;7.53;6.30;;;;;;;;;;5042937;28;20232;-51
2023/05/06 07:13:32;;;;;;;10.53;7.50;;;;;;;;;;5041646;28;20240;-52
2023/05/06 07:15:59;;;;;;;7.40;5.90;;;;;;;;;;5043387;28;20232;-51
2023/05/06 07:18:25;;;;;;;10.03;6.33;;;;;;;;;;5042496;28;20252;-51
2023/05/06 07:20:52;;;;;;;9.07;6.90;;;;;;;;;;5040814;28;20714;-52
2023/05/06 07:23:18;;;;;;;10.73;6.63;;;;;;;;;;5043495;28;20235;-51
2023/05/06 07:25:47;;;;;;;8.87;7.10;;;;;;;;;;5025258;28;20237;-52
2023/05/06 07:28:14;;;;;;;7.70;6.87;;;;;;;;;;5025144;28;20795;-51
2023/05/06 07:30:41;;;;;;;7.80;7.07;;;;;;;;;;5030997;28;20248;-53
2023/05/06 07:33:07;;;;;;;7.63;6.27;;;;;;;;;;5033895;28;20575;-50
2023/05/06 07:35:36;;;;;;;8.27;6.90;;;;;;;;;;5033289;28;20353;-51
2023/05/06 07:38:02;;;;;;;7.57;6.67;;;;;;;;;;5032596;28;20265;-51
2023/05/06 07:40:29;;;;;;;9.10;8.03;;;;;;;;;;5040607;28;20238;-55
2023/05/06 07:42:57;;;;;;;11.23;8.63;;;;;;;;;;5047208;28;20236;-52
2023/05/06 07:45:24;;;;;;;9.30;7.80;;;;;;;;;;5045471;28;20319;-52
2023/05/06 07:47:50;;;;;;;9.03;7.33;;;;;;;;;;5038707;28;20381;-51
2023/05/06 07:50:17;;;;;;;9.30;7.77;;;;;;;;;;5042565;28;20236;-52
2023/05/06 07:52:44;;;;;;;11.07;6.47;;;;;;;;;;5039705;28;20787;-51
2023/05/06 07:55:11;;;;;;;8.67;7.73;;;;;;;;;;5037072;28;20232;-51
2023/05/06 07:57:37;;;;;;;10.30;7.77;;;;;;;;;;5038179;28;20232;-51
2023/05/06 08:00:08;;;;;;;11.20;8.27;;;;;;;;;;5041952;28;20251;-51
2023/05/06 08:02:35;;;;;;;8.37;7.43;;;;;;;;;;5038692;28;20243;-51
2023/05/06 08:05:01;;;;;;;11.00;7.20;;;;;;;;;;5042245;28;20232;-51
2023/05/06 08:07:28;;;;;;;8.57;7.13;;;;;;;;;;5042066;28;20323;-51
2023/05/06 08:09:55;;;;;;;7.67;6.63;;;;;;;;;;5042373;28;20223;-50
2023/05/06 08:12:21;;;;;;;7.43;6.73;;;;;;;;;;5039214;28;20228;-51
2023/05/06 08:14:48;;;;;;;7.47;6.77;;;;;;;;;;5047258;28;20240;-50
2023/05/06 08:17:16;;;;;;;8.87;7.13;;;;;;;;;;5049858;28;20231;-51
2023/05/06 08:19:43;;;;;;;7.13;6.43;;;;;;;;;;5047898;28;20240;-55
2023/05/06 08:22:09;;;;;;;9.33;6.70;;;;;;;;;;5042246;28;20240;-54
2023/05/06 08:24:36;;;;;;;9.47;7.20;;;;;;;;;;5050771;28;20263;-52
2023/05/06 08:27:03;;;;;;;7.67;6.87;;;;;;;;;;5050313;28;20260;-51
2023/05/06 08:29:29;;;;;;;10.30;7.80;;;;;;;;;;5043647;28;20235;-52
2023/05/06 08:31:56;;;;;;;9.10;8.13;;;;;;;;;;5039501;28;20248;-50
2023/05/06 08:34:24;;;;;;;7.60;6.60;;;;;;;;;;5040346;28;20239;-50
2023/05/06 08:36:50;;;;;;;8.07;7.27;;;;;;;;;;5043086;28;20285;-52
2023/05/06 08:39:17;;;;;;;7.17;6.47;;;;;;;;;;5044810;28;20227;-52
2023/05/06 08:41:47;;;;;;;10.13;7.97;;;;;;;;;;5044785;28;20240;-51
2023/05/06 08:44:15;;;;;;;9.33;8.33;;;;;;;;;;5038949;28;20227;-51
2023/05/06 08:46:41;;;;;;;9.33;8.17;;;;;;;;;;5045439;28;20773;-52
2023/05/06 08:49:09;;;;;;;7.73;6.93;;;;;;;;;;5049189;28;20607;-51
2023/05/06 08:51:38;;;;;;;9.70;8.10;;;;;;;;;;5048505;28;20308;-51
2023/05/06 08:54:05;;;;;;;9.20;8.30;;;;;;;;;;5047738;28;20779;-52
2023/05/06 08:56:33;;;;;;;9.40;8.50;;;;;;;;;;5048776;28;20297;-51
2023/05/06 08:59:00;;;;;;;10.10;9.10;;;;;;;;;;5030267;28;20244;-52
2023/05/06 09:01:27;;;;;;;8.83;7.93;;;;;;;;;;5040259;28;20254;-51
2023/05/06 09:03:54;;;;;;;9.20;8.27;;;;;;;;;;5047246;28;20275;-51
2023/05/06 09:06:21;;;;;;;9.60;8.70;;;;;;;;;;5045795;28;20227;-50
2023/05/06 09:08:48;;;;;;;7.77;7.07;;;;;;;;;;5042945;28;20239;-51
2023/05/06 09:11:22;;;;;;;8.57;7.63;;;;;;;;;;5032270;28;20231;-51
2023/05/06 09:13:49;;;;;;;8.87;7.30;;;;;;;;;;5030005;28;20231;-52
2023/05/06 09:16:26;;;;;;;9.20;8.30;;;;;;;;;;5045281;28;20608;-51
2023/05/06 09:18:53;;;;;;;9.17;8.27;;;;;;;;;;5040120;28;20745;-51
2023/05/06 09:21:20;;;;;;;7.80;7.07;;;;;;;;;;5043585;28;20228;-51
2023/05/06 09:23:46;;;;;;;10.63;8.73;;;;;;;;;;5042443;28;20253;-52
2023/05/06 09:26:14;;;;;;;8.53;7.30;;;;;;;;;;5039432;28;20745;-51
2023/05/06 09:28:45;;;;;;;7.70;6.97;;;;;;;;;;5040443;28;20600;-51
2023/05/06 09:31:14;;;;;;;8.97;8.17;;;;;;;;;;5024366;28;20335;-51
2023/05/06 09:33:41;;;;;;;9.33;8.43;;;;;;;;;;5025269;28;20236;-51
2023/05/06 09:36:12;;;;;;;9.97;8.23;;;;;;;;;;5025190;28;20307;-52
2023/05/06 09:38:38;;;;;;;9.80;7.70;;;;;;;;;;5026778;28;20773;-51
2023/05/06 09:41:05;;;;;;;7.97;7.27;;;;;;;;;;5027747;28;20237;-52
2023/05/06 09:43:33;;;;;;;8.47;7.57;;;;;;;;;;5040174;28;20244;-49
2023/05/06 09:46:00;;;;;;;8.10;7.30;;;;;;;;;;5043379;28;20232;-51
2023/05/06 09:48:28;;;;;;;8.20;7.30;;;;;;;;;;5041077;28;20592;-51
2023/05/06 09:50:55;;;;;;;8.03;7.33;;;;;;;;;;5044463;28;20311;-51
2023/05/06 09:53:22;;;;;;;7.83;7.03;;;;;;;;;;5039965;28;20831;-54
2023/05/06 09:55:49;;;;;;;8.27;7.43;;;;;;;;;;5039824;28;20227;-50
2023/05/06 09:58:16;;;;;;;9.87;8.43;;;;;;;;;;5044878;28;20320;-52
2023/05/06 10:00:44;;;;;;;8.40;7.60;;;;;;;;;;5041601;28;20255;-51
2023/05/06 10:03:12;;;;;;;10.37;8.03;;;;;;;;;;5040208;28;20327;-51
2023/05/06 10:05:39;;;;;;;8.20;7.40;;;;;;;;;;5039391;28;20719;-52
2023/05/06 10:08:06;;;;;;;8.97;8.10;;;;;;;;;;5044120;28;20250;-50
2023/05/06 10:10:33;;;;;;;8.13;7.33;;;;;;;;;;5040207;28;20645;-51
2023/05/06 10:13:02;;;;;;;8.20;7.50;;;;;;;;;;5039304;28;20235;-50
2023/05/06 10:15:28;;;;;;;7.37;6.20;;;;;;;;;;5042039;28;20236;-50
2023/05/06 10:17:57;;;;;;;8.33;7.50;;;;;;;;;;5043556;28;20227;-51
2023/05/06 10:20:24;;;;;;;9.63;6.97;;;;;;;;;;5040674;28;20726;-50
2023/05/06 10:22:56;;;;;;;8.60;7.77;;;;;;;;;;5042497;28;20728;-51
2023/05/06 10:25:27;;;;;;;7.50;6.80;;;;;;;;;;5043194;28;20232;-51
2023/05/06 10:27:53;;;;;;;8.10;7.40;;;;;;;;;;5040748;28;20735;-51
2023/05/06 10:30:20;;;;;;;6.67;6.07;;;;;;;;;;5040900;28;22394;-53
2023/05/06 10:32:46;;;;;;;7.70;7.10;;;;;;;;;;5022130;28;20247;-51
2023/05/06 10:35:20;;;;;;;6.95;6.07;;;;;;;;;;5039777;28;20252;-51
2023/05/06 10:37:47;;;;;;;9.07;7.07;;;;;;;;;;5040609;28;20247;-52
2023/05/06 10:40:14;;;;;;;8.90;8.00;;;;;;;;;;5022798;28;20230;-51
2023/05/06 10:42:40;;;;;;;8.07;7.37;;;;;;;;;;5023511;28;20817;-51
2023/05/06 10:45:09;;;;;;;7.43;6.60;;;;;;;;;;5039427;28;20327;-52
2023/05/06 10:48:02;;;;;;;8.38;7.40;;;;;;;;;;5039658;28;20227;-51
2023/05/06 10:50:30;;;;;;;10.07;7.90;;;;;;;;;;4984388;28;20590;-50
2023/05/06 10:52:59;;;;;;;10.47;7.53;;;;;;;;;;5042492;28;20240;-50
2023/05/06 10:55:26;;;;;;;8.60;7.73;;;;;;;;;;5040831;28;20235;-51
2023/05/06 10:57:54;;;;;;;7.73;7.03;;;;;;;;;;5043857;28;20227;-52
2023/05/06 11:00:21;;;;;;;10.57;9.67;;;;;;;;;;5037693;28;20301;-52
2023/05/06 11:02:51;;;;;;;8.73;8.03;;;;;;;;;;5040875;28;20668;-53
2023/05/06 11:05:17;;;;;;;10.40;8.93;;;;;;;;;;5037997;28;20245;-52
2023/05/06 11:07:45;;;;;;;8.07;7.13;;;;;;;;;;5038588;28;20239;-52
2023/05/06 11:10:12;;;;;;;8.10;7.30;;;;;;;;;;5039583;28;20259;-52
2023/05/06 11:12:45;;;;;;;7.73;7.07;;;;;;;;;;5038918;28;20264;-50
2023/05/06 11:15:25;;;;;;;6.43;5.83;;;;;;;;;;5041581;28;20232;-50
2023/05/06 11:17:53;;;;;;;6.10;5.60;;;;;;;;;;5023381;28;20232;-52
2023/05/06 11:20:20;;;;;;;7.80;6.60;;;;;;;;;;5020871;28;20236;-50
2023/05/06 11:22:48;;;;;;;7.93;6.57;;;;;;;;;;5015451;28;20266;-51
2023/05/06 11:25:15;;;;;;;7.70;6.03;;;;;;;;;;5041066;28;20231;-53
2023/05/06 11:27:41;;;;;;;6.97;6.27;;;;;;;;;;5040727;28;20286;-52
2023/05/06 11:30:12;;;;;;;6.43;5.93;;;;;;;;;;5040345;28;20255;-51
2023/05/06 11:32:40;;;;;;;4.87;4.37;;;;;;;;;;5037906;28;20247;-52
2023/05/06 11:35:07;;;;;;;5.00;4.50;;;;;;;;;;5036563;28;20716;-54
2023/05/06 11:37:35;;;;;;;4.70;4.40;;;;;;;;;;5032526;28;20227;-52
2023/05/06 11:40:05;;;;;;;4.60;4.13;;;;;;;;;;5029481;28;20235;-53
2023/05/06 11:42:31;;;;;;;5.63;4.77;;;;;;;;;;5033590;28;20854;-51
2023/05/06 11:45:00;;;;;;;3.70;3.47;;;;;;;;;;5038781;28;22036;-50
2023/05/06 11:47:27;;;;;;;4.97;4.57;;;;;;;;;;5040471;28;20258;-51
2023/05/06 11:49:54;;;;;;;4.33;4.03;;;;;;;;;;5038367;28;20236;-51
2023/05/06 11:52:20;;;;;;;5.60;5.07;;;;;;;;;;5038958;28;20544;-52
2023/05/06 11:54:47;;;;;;;4.40;4.00;;;;;;;;;;5031456;28;20232;-51
2023/05/06 11:57:15;;;;;;;4.67;4.17;;;;;;;;;;5039984;28;20448;-56
2023/05/06 11:59:42;;;;;;;4.30;3.90;;;;;;;;;;5040081;28;20301;-51
2023/05/06 12:02:10;;;;;;;5.53;4.13;;;;;;;;;;5044007;28;20247;-51
2023/05/06 12:04:37;;;;;;;8.13;4.83;;;;;;;;;;5047554;28;20232;-52
2023/05/06 12:07:04;;;;;;;6.30;4.70;;;;;;;;;;5050033;28;20267;-51
2023/05/06 12:09:33;;;;;;;5.40;4.40;;;;;;;;;;5041218;28;20263;-51
2023/05/06 12:11:59;;;;;;;4.23;3.90;;;;;;;;;;5032403;28;20323;-51
2023/05/06 12:14:28;;;;;;;3.47;3.17;;;;;;;;;;5027621;28;20228;-51
2023/05/06 12:16:54;;;;;;;6.23;3.87;;;;;;;;;;5038360;28;20232;-52
2023/05/06 12:19:21;;;;;;;4.63;4.23;;;;;;;;;;5040394;28;20231;-52
2023/05/06 12:21:48;;;;;;;4.00;3.60;;;;;;;;;;5039200;28;20236;-51
2023/05/06 12:24:15;;;;;;;6.60;4.73;;;;;;;;;;5039619;28;20251;-51
2023/05/06 12:26:43;;;;;;;5.13;3.53;;;;;;;;;;5039524;28;20255;-52
2023/05/06 12:29:11;;;;;;;4.33;3.97;;;;;;;;;;5027520;28;20231;-50
2023/05/06 12:31:39;;;;;;;4.27;3.87;;;;;;;;;;5037669;28;20228;-52
2023/05/06 12:34:06;;;;;;;4.57;3.57;;;;;;;;;;5039996;28;20224;-51
2023/05/06 12:36:32;;;;;;;3.80;3.50;;;;;;;;;;5039513;28;20711;-51
2023/05/06 12:39:00;;;;;;;3.93;3.63;;;;;;;;;;5037626;28;20239;-51
2023/05/06 12:41:35;;;;;;;3.37;3.10;;;;;;;;;;5035222;28;20319;-51
2023/05/06 12:44:01;;;;;;;4.23;3.83;;;;;;;;;;5035196;28;20242;-51
2023/05/06 12:46:28;;;;;;;3.90;3.40;;;;;;;;;;5039611;28;20251;-52
2023/05/06 12:48:59;;;;;;;5.40;3.40;;;;;;;;;;5036729;28;20310;-51
2023/05/06 12:51:27;;;;;;;4.40;4.00;;;;;;;;;;5039535;28;20643;-51
2023/05/06 12:53:54;;;;;;;4.90;3.90;;;;;;;;;;5038342;28;20293;-52
2023/05/06 12:56:21;;;;;;;7.60;3.70;;;;;;;;;;5041103;28;20239;-51
2023/05/06 12:59:05;;;;;;;3.33;3.00;;;;;;;;;;5037808;28;20743;-51
2023/05/06 13:01:32;;;;;;;3.97;3.67;;;;;;;;;;5017331;28;20824;-52
2023/05/06 13:04:00;;;;;;;13.83;3.50;;;;;;;;;;5020435;28;20244;-50
2023/05/06 13:06:27;;;;;;;3.47;3.17;;;;;;;;;;5028877;28;20231;-51
2023/05/06 13:08:53;;;;;;;4.20;3.80;;;;;;;;;;5023420;28;20245;-51
2023/05/06 13:11:21;;;;;;;7.77;3.80;;;;;;;;;;5029324;28;20232;-53
2023/05/06 13:13:47;;;;;;;3.87;3.57;;;;;;;;;;5043457;28;20286;-50
2023/05/06 13:16:14;;;;;;;3.60;3.30;;;;;;;;;;5042585;28;20612;-51
2023/05/06 13:18:41;;;;;;;4.87;3.40;;;;;;;;;;5038370;28;20660;-51
2023/05/06 13:21:09;;;;;;;3.40;3.10;;;;;;;;;;5043009;28;20242;-51
2023/05/06 13:23:36;;;;;;;4.27;3.80;;;;;;;;;;5041659;28;20244;-51
2023/05/06 13:26:04;;;;;;;5.93;4.10;;;;;;;;;;5043594;28;20232;-52
2023/05/06 13:28:31;;;;;;;3.63;3.33;;;;;;;;;;5043466;28;20693;-52
2023/05/06 13:30:57;;;;;;;4.47;3.47;;;;;;;;;;5045074;28;20254;-53
2023/05/06 13:33:24;;;;;;;5.40;4.60;;;;;;;;;;5051359;28;20232;-52
2023/05/06 13:35:51;;;;;;;4.17;3.87;;;;;;;;;;5033933;28;20240;-51
2023/05/06 13:38:19;;;;;;;4.50;4.13;;;;;;;;;;5030464;28;20220;-53
2023/05/06 13:40:46;;;;;;;3.97;3.63;;;;;;;;;;5045002;28;20240;-51
2023/05/06 13:43:14;;;;;;;4.53;3.77;;;;;;;;;;5034819;28;20266;-51
2023/05/06 13:45:41;;;;;;;4.90;3.93;;;;;;;;;;5044437;28;20279;-51
2023/05/06 13:48:07;;;;;;;4.20;3.67;;;;;;;;;;5031738;28;20311;-50
2023/05/06 13:50:34;;;;;;;3.40;3.10;;;;;;;;;;5040884;28;20229;-50
2023/05/06 13:53:01;;;;;;;4.00;3.67;;;;;;;;;;5035059;28;20558;-52
2023/05/06 13:55:29;;;;;;;4.10;3.80;;;;;;;;;;5038084;28;20318;-52
2023/05/06 13:57:56;;;;;;;3.70;3.40;;;;;;;;;;5045246;28;20235;-52
2023/05/06 14:00:23;;;;;;;4.33;3.63;;;;;;;;;;5046160;28;20319;-52
2023/05/06 14:02:49;;;;;;;5.03;3.83;;;;;;;;;;5044717;28;20232;-50
2023/05/06 14:05:16;;;;;;;3.87;3.20;;;;;;;;;;5047152;28;20327;-51
2023/05/06 14:07:43;;;;;;;3.20;3.00;;;;;;;;;;5043498;28;20239;-51
2023/05/06 14:10:10;;;;;;;4.30;3.30;;;;;;;;;;5041703;28;20251;-52
2023/05/06 14:12:38;;;;;;;3.87;3.57;;;;;;;;;;5045512;28;20232;-50
2023/05/06 14:15:05;;;;;;;3.37;3.07;;;;;;;;;;5047299;28;20273;-51
2023/05/06 14:17:32;;;;;;;5.13;3.63;;;;;;;;;;5047372;28;20227;-52
2023/05/06 14:19:59;;;;;;;3.10;2.90;;;;;;;;;;5046853;28;20739;-51
2023/05/06 14:22:25;;;;;;;3.53;3.20;;;;;;;;;;5047566;28;20236;-54
2023/05/06 14:24:52;;;;;;;3.63;3.33;;;;;;;;;;5046862;28;20260;-52
2023/05/06 14:27:19;;;;;;;3.53;3.27;;;;;;;;;;5043538;28;20664;-52
2023/05/06 14:29:47;;;;;;;3.30;3.07;;;;;;;;;;5034185;28;20229;-51
2023/05/06 14:32:14;;;;;;;4.23;3.00;;;;;;;;;;5022078;28;20238;-52
2023/05/06 14:34:40;;;;;;;4.30;3.47;;;;;;;;;;5029528;28;20326;-51
2023/05/06 14:37:06;;;;;;;4.77;3.70;;;;;;;;;;5027134;28;20821;-50
2023/05/06 14:39:33;;;;;;;2.93;2.73;;;;;;;;;;5029247;28;20240;-52
2023/05/06 14:42:00;;;;;;;3.40;3.10;;;;;;;;;;5028832;28;20232;-51